Eye Of The Wind — GWAK — position and weather

sailwx.info

Track history (hours):
 
Tides and Currents Weather Stations Pressure Air Temp Water Temp Dewpoint Dewpoint Depression Visibility Wind Speed Wind Dir Waves Ship Positions

Eye Of The Wind

Last reported at 2019-Feb-16 02:55 UTC. Time now 2019-Feb-16 03:02 UTC.
Position N 18°05' W 063°05'.

Length 33 m; draft 2.8 m.

Type: Sailing vessel. MMSI: 233789000.

Date/timePositionNaut miles runAvg speedWind from/ knotsBaromVisibWave heightAir tempDewpointWater temp
2019-Feb-16 02:55N 18°05' W 063°05'0 0.0
2019-Feb-16 02:25N 18°05' W 063°05'0 0.0
2019-Feb-16 01:55N 18°05' W 063°05'0 0.0
2019-Feb-16 01:23N 18°05' W 063°05'0 0.0
2019-Feb-16 00:37N 18°05' W 063°05'0 0.0
2019-Feb-16 00:28N 18°05' W 063°05'0 0.0
2019-Feb-15 23:55N 18°05' W 063°05'0 0.0
2019-Feb-15 23:28N 18°05' W 063°05'0 0.0
2019-Feb-15 22:10N 18°05' W 063°05'0 0.0
2019-Feb-15 19:01N 18°05' W 063°05'0 5.3
2019-Feb-15 19:00N 18°05' W 063°05'3 4.4
2019-Feb-15 18:26N 18°07' W 063°05'  
2019-Feb-10 06:27N 14°46' W 061°16'3 6.7
2019-Feb-10 06:00N 14°43' W 061°14'3 6.3
2019-Feb-10 05:30N 14°41' W 061°13'3 6.2
2019-Feb-10 05:00N 14°39' W 061°10'3 6.5
2019-Feb-10 04:30N 14°37' W 061°08'3 6.2
2019-Feb-10 04:00N 14°35' W 061°05'1 2.5
2019-Feb-10 03:30N 14°36' W 061°04'0 0.0
2019-Feb-10 03:00N 14°36' W 061°04'0 0.0
2019-Feb-10 02:27N 14°36' W 061°04'0 0.0
2019-Feb-10 02:00N 14°36' W 061°04'0 0.0
2019-Feb-10 01:30N 14°36' W 061°04'0 0.0
2019-Feb-10 01:00N 14°36' W 061°04'0 0.0
2019-Feb-10 00:30N 14°36' W 061°04'0 0.0
2019-Feb-10 00:00N 14°36' W 061°04'0 0.0
2019-Feb-09 23:30N 14°36' W 061°04'0 0.0
2019-Feb-09 22:57N 14°36' W 061°04'0 0.0
2019-Feb-09 22:30N 14°36' W 061°04'0 0.0
2019-Feb-09 22:00N 14°36' W 061°04'0 0.0
2019-Feb-09 21:30N 14°36' W 061°04'0 0.0
2019-Feb-09 20:57N 14°36' W 061°04'0 0.0
2019-Feb-09 20:30N 14°36' W 061°04'0 0.0
2019-Feb-09 20:00N 14°36' W 061°04'0 0.0
2019-Feb-09 19:30N 14°36' W 061°04'0 0.0
2019-Feb-09 19:00N 14°36' W 061°04'0 0.0
2019-Feb-09 18:30N 14°36' W 061°04'0 0.0
2019-Feb-09 18:00N 14°36' W 061°04'0 0.0
2019-Feb-09 17:30N 14°36' W 061°04'0 0.0
2019-Feb-09 17:00N 14°36' W 061°04'0 0.0
2019-Feb-09 16:27N 14°36' W 061°04'0 0.0
2019-Feb-09 15:57N 14°36' W 061°04'0 0.0
2019-Feb-09 15:30N 14°36' W 061°04'0 0.0
2019-Feb-09 14:57N 14°36' W 061°04'0 0.0
2019-Feb-09 14:30N 14°36' W 061°04'0 0.0
2019-Feb-09 13:57N 14°36' W 061°04'0 0.0
2019-Feb-09 13:30N 14°36' W 061°04'0 0.0
2019-Feb-09 12:57N 14°36' W 061°04'0 0.1
2019-Feb-09 12:30N 14°36' W 061°04'0 0.1
2019-Feb-09 12:00N 14°36' W 061°04'0 0.0
2019-Feb-09 11:30N 14°36' W 061°04'0 0.0
2019-Feb-09 11:00N 14°36' W 061°04'0 0.0
2019-Feb-09 10:30N 14°36' W 061°04'0 0.0
2019-Feb-09 10:00N 14°36' W 061°04'0 0.0
2019-Feb-09 09:27N 14°36' W 061°04'0 0.0
2019-Feb-09 09:00N 14°36' W 061°04'0 0.0
2019-Feb-09 08:30N 14°36' W 061°04'0 0.0
2019-Feb-09 07:51N 14°36' W 061°04'0 0.0
2019-Feb-09 07:30N 14°36' W 061°04'0 0.0
2019-Feb-09 07:00N 14°36' W 061°04'0 0.0
2019-Feb-09 06:30N 14°36' W 061°04'0 0.0
2019-Feb-09 06:00N 14°36' W 061°04'0 0.0
2019-Feb-09 05:30N 14°36' W 061°04'0 0.0
2019-Feb-09 05:00N 14°36' W 061°04'0 0.0
2019-Feb-09 04:30N 14°36' W 061°04'0 0.0
2019-Feb-09 04:00N 14°36' W 061°04'0 0.0
2019-Feb-09 03:30N 14°36' W 061°04'0 0.0
2019-Feb-09 03:00N 14°36' W 061°04'0 0.0
2019-Feb-09 02:24N 14°36' W 061°04'0 0.0
2019-Feb-09 01:57N 14°36' W 061°04'0 0.0
2019-Feb-09 01:30N 14°36' W 061°04'0 0.0
2019-Feb-09 00:57N 14°36' W 061°04'0 0.0
2019-Feb-09 00:30N 14°36' W 061°04'0 0.0
2019-Feb-09 00:00N 14°36' W 061°04'0 0.0
2019-Feb-08 23:30N 14°36' W 061°04'0 0.1
2019-Feb-08 20:02N 14°36' W 061°04'0 4.3
2019-Feb-08 20:00N 14°36' W 061°04'2 4.6
2019-Feb-08 19:30N 14°35' W 061°06'2 4.8
2019-Feb-08 19:00N 14°34' W 061°08'2 4.2
2019-Feb-08 18:30N 14°32' W 061°08'2 4.2
2019-Feb-08 18:00N 14°30' W 061°06'2 3.2
2019-Feb-08 17:30N 14°29' W 061°06'3 5.4
2019-Feb-08 16:57N 14°26' W 061°05'  
Track history (hours):
 
Tides and Currents Weather Stations Pressure Air Temp Water Temp Dewpoint Dewpoint Depression Visibility Wind Speed Wind Dir Waves Ship Positions

Eye Of The Wind

Last reported at 2019-Feb-16 02:55 UTC. Time now 2019-Feb-16 03:02 UTC.
Position N 18°05' W 063°05'.

Length 33 m; draft 2.8 m.

Type: Sailing vessel. MMSI: 233789000.

Date/timePositionNaut miles runAvg speedWind from/ knotsBaromVisibWave heightAir tempDewpointWater temp
2019-Feb-16 02:55N 18°05' W 063°05'0 0.0
2019-Feb-16 02:25N 18°05' W 063°05'0 0.0
2019-Feb-16 01:55N 18°05' W 063°05'0 0.0
2019-Feb-16 01:23N 18°05' W 063°05'0 0.0
2019-Feb-16 00:37N 18°05' W 063°05'0 0.0
2019-Feb-16 00:28N 18°05' W 063°05'0 0.0
2019-Feb-15 23:55N 18°05' W 063°05'0 0.0
2019-Feb-15 23:28N 18°05' W 063°05'0 0.0
2019-Feb-15 22:10N 18°05' W 063°05'0 0.0
2019-Feb-15 19:01N 18°05' W 063°05'0 5.3
2019-Feb-15 19:00N 18°05' W 063°05'3 4.4
2019-Feb-15 18:26N 18°07' W 063°05'  
2019-Feb-10 06:27N 14°46' W 061°16'3 6.7
2019-Feb-10 06:00N 14°43' W 061°14'3 6.3
2019-Feb-10 05:30N 14°41' W 061°13'3 6.2
2019-Feb-10 05:00N 14°39' W 061°10'3 6.5
2019-Feb-10 04:30N 14°37' W 061°08'3 6.2
2019-Feb-10 04:00N 14°35' W 061°05'1 2.5
2019-Feb-10 03:30N 14°36' W 061°04'0 0.0
2019-Feb-10 03:00N 14°36' W 061°04'0 0.0
2019-Feb-10 02:27N 14°36' W 061°04'0 0.0
2019-Feb-10 02:00N 14°36' W 061°04'0 0.0
2019-Feb-10 01:30N 14°36' W 061°04'0 0.0
2019-Feb-10 01:00N 14°36' W 061°04'0 0.0
2019-Feb-10 00:30N 14°36' W 061°04'0 0.0
2019-Feb-10 00:00N 14°36' W 061°04'0 0.0
2019-Feb-09 23:30N 14°36' W 061°04'0 0.0
2019-Feb-09 22:57N 14°36' W 061°04'0 0.0
2019-Feb-09 22:30N 14°36' W 061°04'0 0.0
2019-Feb-09 22:00N 14°36' W 061°04'0 0.0
2019-Feb-09 21:30N 14°36' W 061°04'0 0.0
2019-Feb-09 20:57N 14°36' W 061°04'0 0.0
2019-Feb-09 20:30N 14°36' W 061°04'0 0.0
2019-Feb-09 20:00N 14°36' W 061°04'0 0.0
2019-Feb-09 19:30N 14°36' W 061°04'0 0.0
2019-Feb-09 19:00N 14°36' W 061°04'0 0.0
2019-Feb-09 18:30N 14°36' W 061°04'0 0.0
2019-Feb-09 18:00N 14°36' W 061°04'0 0.0
2019-Feb-09 17:30N 14°36' W 061°04'0 0.0
2019-Feb-09 17:00N 14°36' W 061°04'0 0.0
2019-Feb-09 16:27N 14°36' W 061°04'0 0.0
2019-Feb-09 15:57N 14°36' W 061°04'0 0.0
2019-Feb-09 15:30N 14°36' W 061°04'0 0.0
2019-Feb-09 14:57N 14°36' W 061°04'0 0.0
2019-Feb-09 14:30N 14°36' W 061°04'0 0.0
2019-Feb-09 13:57N 14°36' W 061°04'0 0.0
2019-Feb-09 13:30N 14°36' W 061°04'0 0.0
2019-Feb-09 12:57N 14°36' W 061°04'0 0.1
2019-Feb-09 12:30N 14°36' W 061°04'0 0.1
2019-Feb-09 12:00N 14°36' W 061°04'0 0.0
2019-Feb-09 11:30N 14°36' W 061°04'0 0.0
2019-Feb-09 11:00N 14°36' W 061°04'0 0.0
2019-Feb-09 10:30N 14°36' W 061°04'0 0.0
2019-Feb-09 10:00N 14°36' W 061°04'0 0.0
2019-Feb-09 09:27N 14°36' W 061°04'0 0.0
2019-Feb-09 09:00N 14°36' W 061°04'0 0.0
2019-Feb-09 08:30N 14°36' W 061°04'0 0.0
2019-Feb-09 07:51N 14°36' W 061°04'0 0.0
2019-Feb-09 07:30N 14°36' W 061°04'0 0.0
2019-Feb-09 07:00N 14°36' W 061°04'0 0.0
2019-Feb-09 06:30N 14°36' W 061°04'0 0.0
2019-Feb-09 06:00N 14°36' W 061°04'0 0.0
2019-Feb-09 05:30N 14°36' W 061°04'0 0.0
2019-Feb-09 05:00N 14°36' W 061°04'0 0.0
2019-Feb-09 04:30N 14°36' W 061°04'0 0.0
2019-Feb-09 04:00N 14°36' W 061°04'0 0.0
2019-Feb-09 03:30N 14°36' W 061°04'0 0.0
2019-Feb-09 03:00N 14°36' W 061°04'0 0.0
2019-Feb-09 02:24N 14°36' W 061°04'0 0.0
2019-Feb-09 01:57N 14°36' W 061°04'0 0.0
2019-Feb-09 01:30N 14°36' W 061°04'0 0.0
2019-Feb-09 00:57N 14°36' W 061°04'0 0.0
2019-Feb-09 00:30N 14°36' W 061°04'0 0.0
2019-Feb-09 00:00N 14°36' W 061°04'0 0.0
2019-Feb-08 23:30N 14°36' W 061°04'0 0.1
2019-Feb-08 20:02N 14°36' W 061°04'0 4.3
2019-Feb-08 20:00N 14°36' W 061°04'2 4.6
2019-Feb-08 19:30N 14°35' W 061°06'2 4.8
2019-Feb-08 19:00N 14°34' W 061°08'2 4.2
2019-Feb-08 18:30N 14°32' W 061°08'2 4.2
2019-Feb-08 18:00N 14°30' W 061°06'2 3.2
2019-Feb-08 17:30N 14°29' W 061°06'3 5.4
2019-Feb-08 16:57N 14°26' W 061°05'  

Dump ship's entire track history